Nearby METAR Reports

METAR is the scheduled surface weather observation taken hourly at civil and military airport locations.

METAR is an acronym from the French language and roughly translates as Aviation Routine Weather Report.

 

EGPL - Benbecula Island, United Kingdom
Distance from station: WNW 41mi, 66km
Updated: 21/07/2019 20:50
Overcast
Overcast
 Wind from SSW
Wind: SSW 26 mph , 43 km/h
Temperature: 16°C
Dew Point: 15°C
Humidity: 94%
Barometer: 1002 hPa
Clouds: Overcast
Visibility: 6 miles , 10 km
Cloud details: Mostly cloudy 183 m
Overcast 366 m
2019/07/21 19:50 EGPL 211950Z AUTO 20023KT 9999 BKN006/// OVC012/// 16/15 Q1002
EGPU - Tiree Island, United Kingdom
Distance from station: SSW 56mi, 90km
Updated: 21/07/2019 20:50
Mostly cloudy
Mostly cloudy
 Wind from S
Wind: S 17 mph , 28 km/h
Temperature: 15°C
Dew Point: 15°C
Humidity: 100%
Barometer: 1004 hPa
Clouds: Mostly cloudy
Visibility: 5 miles , 8 km
Cloud details: Few Clouds 122 m
Mostly cloudy 305 m
2019/07/21 19:50 EGPU 211950Z AUTO 19015KT 090V150 8000 FEW004/// BKN010/// 15/15 Q1004
 
EGEO - Oban Airport, United Kingdom
Distance from station: SE 65mi, 105km
Updated: 21/07/2019 16:20
NOT Current
Light rain, Drizzle, Overcast
Light rain, Drizzle, Overcast
 Wind from S
Wind: S 14 mph , 22 km/h
Temperature: 15°C
Dew Point: 14°C
Humidity: 94%
Barometer: 1011 hPa
Summary: Light rain, Drizzle
Clouds: Overcast
Visibility: 4 miles , 7 km
Cloud details: Partly cloudy 610 m
Overcast 1372 m
2019/07/21 15:20 EGEO 211520Z 17012KT 7000 -RADZ SCT020 OVC045 15/14 Q1011
EGPO - Stornoway, United Kingdom
Distance from station: 0 66mi, 106km
Updated: 21/07/2019 20:50
Overcast
Overcast
 Wind from S
Wind: S 22 mph , 35 km/h
Temperature: 15°C
Dew Point: 14°C
Humidity: 94%
Barometer: 1002 hPa
Clouds: Overcast
Visibility: 6 miles , 10 km
Cloud details: Overcast 244 m
2019/07/21 19:50 EGPO 211950Z AUTO 18019KT 9999 OVC008/// 15/14 Q1002
 
EGPE - Inverness/Dalcro, United Kingdom
Distance from station: ENE 88mi, 141km
Updated: 21/07/2019 20:50
Overcast
Overcast
 Wind from SSW
Wind: SSW 9 mph , 15 km/h
Temperature: 18°C
Dew Point: 14°C
Humidity: 78%
Barometer: 1005 hPa
Clouds: Overcast
Visibility: 6 miles , 10 km
Cloud details: Mostly cloudy 945 m
Overcast 1341 m
2019/07/21 19:50 EGPE 211950Z AUTO 20008KT 9999 BKN031/// OVC044/// 18/14 Q1005
EGQA - Tain Range (saws, United Kingdom
Distance from station: ENE 97mi, 156km
Updated: 12/07/2019 09:50
NOT Current
Mist, Mostly cloudy
Mist, Mostly cloudy
 Wind from ENE
Wind: ENE 6 mph , 9 km/h
Summary: Mist
Clouds: Mostly cloudy
Visibility: 1 mile , 2 km
Cloud details: Mostly cloudy 61 m
2019/07/12 08:50 EGQA 120850Z 06005KT 2000 BR BKN002 14/// Q1015 AMB
 
EGQK - Kinloss Raf, United Kingdom
Distance from station: ENE 107mi, 171km
Updated: 21/07/2019 20:50
Mostly cloudy
Mostly cloudy
 Wind from SE
Wind: SE 5 mph , 7 km/h
Temperature: 17°C
Dew Point: 13°C
Humidity: 77%
Barometer: 1006 hPa
Clouds: Mostly cloudy
Visibility: 6 miles , 10 km
Cloud details: Mostly cloudy 1494 m
2019/07/21 19:50 EGQK 211950Z AUTO 14004KT 9999 BKN049/// 17/13 Q1006
EGPI - Islay/Port Ellen, United Kingdom
Distance from station: S 110mi, 177km
Updated: 21/07/2019 20:50
Rain, Partly cloudy
Rain, Partly cloudy
 Wind from SE
Wind: SE 14 mph , 22 km/h
Temperature: 15°C
Dew Point: 15°C
Humidity: 100%
Barometer: 1007 hPa
Summary: Rain
Clouds: Partly cloudy
Visibility: 3 miles , 4 km
Cloud details: Mostly cloudy 91 m
Partly cloudy 305 m
2019/07/21 19:50 EGPI 211950Z AUTO 14012KT 090V150 4200 RA BKN003/// SCT010/// 15/15 Q1007
 
EGQS - Lossiemouth Raf, United Kingdom
Distance from station: ENE 117mi, 188km
Updated: 21/07/2019 20:50
Mostly cloudy
Mostly cloudy
 Wind from S
Wind: S 9 mph , 15 km/h
Temperature: 18°C
Dew Point: 13°C
Humidity: 73%
Barometer: 1006 hPa
Clouds: Mostly cloudy
Visibility: 6 miles , 10 km
Cloud details: Few Clouds 853 m
Partly cloudy 1524 m
Mostly cloudy 2134 m
2019/07/21 19:50 EGQS 211950Z 17008KT 9999 FEW028 SCT050 BKN070 18/13 Q1006 RMK BLU
EGPF - Glasgow Airport, United Kingdom
Distance from station: SE 121mi, 195km
Updated: 21/07/2019 20:50
Light rain, Thunderstorm
Light rain, Thunderstorm
 Wind from SSE
Wind: SSE 9 mph , 15 km/h
Temperature: 17°C
Dew Point: 15°C
Humidity: 88%
Barometer: 1009 hPa
Summary: Light rain
Clouds: Thunderstorm
Visibility: 6 miles , 10 km
Cloud details: Partly cloudy 457 m
2019/07/21 19:50 EGPF 211950Z AUTO 16008KT 100V200 9999 -RA SCT015/// //////CB 17/15 Q1009
 
EGEC - Campbeltown, United Kingdom
Distance from station: SSE 129mi, 207km
Updated: 21/07/2019 18:20
NOT Current
Partly cloudy
Partly cloudy
 Wind from S
Wind: S 25 mph , 41 km/h
Temperature: 16°C
Dew Point: 15°C
Humidity: 94%
Barometer: 1008 hPa
Clouds: Partly cloudy
Visibility: 6 miles , 10 km
Cloud details: Partly cloudy 213 m
2019/07/21 17:20 EGEC 211720Z 17022KT 9999 SCT007 16/15 Q1008
EGPN - Dundee/Riverside, United Kingdom
Distance from station: ESE 137mi, 221km
Updated: 21/07/2019 17:20
NOT Current
Partly cloudy
Partly cloudy
 Wind from WSW
Wind: WSW 14 mph , 22 km/h
Temperature: 18°C
Dew Point: 14°C
Humidity: 78%
Barometer: 1012 hPa
Clouds: Partly cloudy
Visibility: 6 miles , 10 km
Cloud details: Few Clouds 549 m
Partly cloudy 1219 m
2019/07/21 16:20 EGPN 211620Z 25012KT 9999 FEW018 SCT040 18/14 Q1012
 
EGPK - Prestwick(Civ/Na, United Kingdom
Distance from station: SSE 139mi, 224km
Updated: 21/07/2019 20:50
Light rain, Mostly cloudy
Light rain, Mostly cloudy
 Wind from SSE
Wind: SSE 12 mph , 19 km/h
Temperature: 16°C
Dew Point: 16°C
Humidity: 100%
Barometer: 1009 hPa
Summary: Light rain
Clouds: Mostly cloudy
Visibility: 6 miles , 10 km
Cloud details: Partly cloudy 457 m
Mostly cloudy 853 m
2019/07/21 19:50 EGPK 211950Z 15010KT 9999 -RA SCT015 BKN028 16/16 Q1009
EGQL - Leuchars Raf, United Kingdom
Distance from station: ESE 145mi, 233km
Updated: 21/07/2019 20:50
Mostly cloudy
Mostly cloudy
 Wind from ESE
Wind: ESE 2 mph , 4 km/h
Temperature: 17°C
Dew Point: 14°C
Humidity: 83%
Barometer: 1009 hPa
Clouds: Mostly cloudy
Visibility: 6 miles , 10 km
Cloud details: Partly cloudy 732 m
Mostly cloudy 1219 m
Mostly cloudy 2743 m
2019/07/21 19:50 EGQL 211950Z 12002KT 9999 SCT024 BKN040 BKN090 17/14 Q1009 RMK WHT
 
EGPH - Edinburgh Airpor, United Kingdom
Distance from station: SE 145mi, 234km
Updated: 21/07/2019 20:50
Light rain, Few clouds
Light rain, Few clouds
 Wind from SSW
Wind: SSW 20 mph , 31 km/h
Temperature: 18°C
Dew Point: 15°C
Humidity: 83%
Barometer: 1009 hPa
Summary: Light rain
Clouds: Few Clouds
Visibility: 6 miles , 10 km
Cloud details: Few Clouds 732 m
2019/07/21 19:50 EGPH 211950Z 20017KT 9999 -RA FEW024 18/15 Q1009
EGPC - Wick, United Kingdom
Distance from station: NE 146mi, 234km
Updated: 21/07/2019 20:50
Light rain, Clear
Light rain, Clear
 Wind from S
Wind: S 9 mph , 15 km/h
Temperature: 15°C
Dew Point: 13°C
Humidity: 88%
Barometer: 1007 hPa
Summary: Light rain
Clouds: Clear
Visibility: 6 miles , 10 km
2019/07/21 19:50 EGPC 211950Z AUTO 17008KT 140V200 9999 -RA NCD 15/13 Q1007

-

free counters
QR Code Twitter Scottish Weather Network UK Weather Network
Argyll House B & B

Argyll House B & B is situated in North West Skye and is the perfect base to see all that the Isle of Skye has to offer. We are just about full for 2019. Bookings are been taken for 2020.